createdAt,value
2023-01-26T00:00:29.451Z,93.14
2023-01-26T00:01:29.453Z,93.14
2023-01-26T00:02:29.475Z,93.07
2023-01-26T00:03:29.470Z,93.24
2023-01-26T00:04:29.417Z,93.24
2023-01-26T00:05:29.410Z,93.18
2023-01-26T00:06:29.401Z,93.07
2023-01-26T00:07:29.377Z,93.07
2023-01-26T00:08:29.365Z,93.07
2023-01-26T00:09:29.377Z,93.03
2023-01-26T00:10:29.357Z,93.14
2023-01-26T00:11:29.379Z,93.18
2023-01-26T00:12:29.334Z,93.07
2023-01-26T00:13:29.322Z,93.03
2023-01-26T00:14:29.323Z,93.14
2023-01-26T00:15:29.312Z,93.03
2023-01-26T00:16:29.336Z,92.82
2023-01-26T00:17:29.308Z,92.82
2023-01-26T00:18:29.262Z,92.82
2023-01-26T00:19:29.256Z,92.82
2023-01-26T00:20:29.260Z,93.07
2023-01-26T00:21:29.253Z,93.29
2023-01-26T00:22:29.211Z,93.60
2023-01-26T00:23:29.213Z,93.70
2023-01-26T00:24:29.202Z,93.70
2023-01-26T00:25:29.195Z,93.80
2023-01-26T00:26:29.183Z,94.01
2023-01-26T00:27:29.163Z,94.12
2023-01-26T00:28:29.174Z,94.12
2023-01-26T00:29:29.152Z,94.12
2023-01-26T00:30:29.196Z,93.97
2023-01-26T00:31:29.158Z,93.76
2023-01-26T00:32:29.123Z,93.66
2023-01-26T00:33:29.106Z,93.55
2023-01-26T00:34:29.098Z,93.35
2023-01-26T00:35:29.082Z,93.14
2023-01-26T00:36:29.086Z,93.03
2023-01-26T00:37:29.073Z,92.93
2023-01-26T00:38:29.055Z,92.82
2023-01-26T00:39:29.034Z,92.93
2023-01-26T00:40:29.043Z,92.78
2023-01-26T00:41:29.014Z,92.57
2023-01-26T00:42:29.027Z,92.47
2023-01-26T00:43:29.023Z,92.36
2023-01-26T00:44:28.992Z,92.26
2023-01-26T00:45:28.975Z,92.36
2023-01-26T00:46:29.006Z,92.47
2023-01-26T00:47:28.989Z,92.36
2023-01-26T00:48:28.956Z,92.26
2023-01-26T00:49:28.927Z,92.16
2023-01-26T00:50:28.935Z,92.05
2023-01-26T00:51:28.923Z,92.05
2023-01-26T00:52:28.910Z,92.05
2023-01-26T00:53:28.894Z,92.05
2023-01-26T00:54:28.895Z,91.95
2023-01-26T00:55:28.865Z,91.95
2023-01-26T00:56:28.869Z,92.05
2023-01-26T00:57:28.879Z,92.16
2023-01-26T00:58:28.842Z,92.05
2023-01-26T00:59:28.846Z,91.85
2023-01-26T01:00:28.848Z,91.95
2023-01-26T01:01:28.816Z,91.95
2023-01-26T01:02:28.806Z,92.05
2023-01-26T01:03:28.777Z,92.20
2023-01-26T01:04:28.801Z,92.30
2023-01-26T01:05:28.773Z,92.51
2023-01-26T01:06:28.769Z,92.51
2023-01-26T01:07:28.741Z,92.61
2023-01-26T01:08:28.739Z,92.72
2023-01-26T01:09:28.718Z,92.72
2023-01-26T01:10:28.728Z,92.93
2023-01-26T01:11:28.707Z,93.03
2023-01-26T01:12:28.693Z,92.93
2023-01-26T01:13:28.675Z,92.82
2023-01-26T01:14:28.680Z,92.61
2023-01-26T01:15:28.685Z,92.61
2023-01-26T01:16:28.709Z,92.30
2023-01-26T01:17:28.638Z,92.24
2023-01-26T01:18:28.625Z,92.24
2023-01-26T01:19:28.633Z,92.45
2023-01-26T01:20:28.615Z,92.76
2023-01-26T01:21:28.595Z,92.86
2023-01-26T01:22:28.577Z,92.86
2023-01-26T01:23:28.586Z,92.97
2023-01-26T01:24:28.577Z,93.18
2023-01-26T01:25:28.546Z,93.18
2023-01-26T01:26:28.547Z,93.07
2023-01-26T01:27:28.525Z,93.07
2023-01-26T01:28:28.537Z,92.86
2023-01-26T01:29:28.508Z,92.86
2023-01-26T01:30:28.497Z,92.97
2023-01-26T01:31:28.614Z,92.86
2023-01-26T01:32:28.487Z,92.86
2023-01-26T01:33:28.487Z,92.97
2023-01-26T01:34:28.478Z,93.07
2023-01-26T01:35:28.448Z,93.07
2023-01-26T01:36:28.437Z,93.18
2023-01-26T01:37:28.425Z,93.29
2023-01-26T01:38:28.430Z,93.18
2023-01-26T01:39:28.425Z,93.18
2023-01-26T01:40:28.400Z,93.29
2023-01-26T01:41:28.378Z,93.18
2023-01-26T01:42:28.390Z,93.29
2023-01-26T01:43:28.360Z,93.29
2023-01-26T01:44:28.369Z,93.39
2023-01-26T01:45:28.337Z,93.29
2023-01-26T01:46:28.380Z,93.39
2023-01-26T01:47:28.349Z,93.49
2023-01-26T01:48:28.316Z,93.49
2023-01-26T01:49:28.315Z,93.70
2023-01-26T01:50:28.316Z,93.80
2023-01-26T01:51:28.277Z,93.80
2023-01-26T01:52:28.296Z,93.80
2023-01-26T01:53:28.260Z,93.91
2023-01-26T01:54:28.259Z,93.70
2023-01-26T01:55:28.228Z,93.60
2023-01-26T01:56:28.230Z,93.70
2023-01-26T01:57:28.217Z,93.60
2023-01-26T01:58:28.199Z,93.60
2023-01-26T01:59:28.219Z,93.60
2023-01-26T02:00:28.185Z,93.49
2023-01-26T02:01:28.167Z,93.60
2023-01-26T02:02:28.181Z,93.49
2023-01-26T02:03:28.139Z,93.39
2023-01-26T02:04:28.147Z,93.18
2023-01-26T02:05:28.123Z,93.07
2023-01-26T02:06:28.180Z,93.18
2023-01-26T02:07:28.100Z,93.18
2023-01-26T02:08:28.107Z,93.07
2023-01-26T02:09:28.086Z,93.07
2023-01-26T02:10:28.093Z,93.03
2023-01-26T02:11:28.063Z,92.93
2023-01-26T02:12:28.061Z,92.82
2023-01-26T02:13:28.035Z,92.61
2023-01-26T02:14:28.041Z,92.61
2023-01-26T02:15:28.030Z,92.61
2023-01-26T02:16:28.071Z,92.61
2023-01-26T02:17:28.004Z,92.72
2023-01-26T02:18:27.990Z,92.61
2023-01-26T02:19:27.999Z,92.61
2023-01-26T02:20:27.980Z,92.61
2023-01-26T02:21:28.000Z,92.72
2023-01-26T02:22:28.028Z,92.51
2023-01-26T02:23:27.932Z,92.51
2023-01-26T02:24:27.934Z,92.30
2023-01-26T02:25:27.911Z,92.55
2023-01-26T02:26:27.927Z,92.66
2023-01-26T02:27:27.910Z,92.55
2023-01-26T02:28:27.898Z,92.66
2023-01-26T02:29:27.870Z,92.76
2023-01-26T02:30:27.870Z,92.86
2023-01-26T02:31:27.893Z,92.86
2023-01-26T02:32:27.852Z,92.86
2023-01-26T02:33:27.830Z,92.86
2023-01-26T02:34:27.831Z,92.76
2023-01-26T02:35:27.804Z,92.86
2023-01-26T02:36:27.832Z,92.76
2023-01-26T02:37:27.814Z,92.86
2023-01-26T02:38:27.784Z,92.86
2023-01-26T02:39:27.754Z,92.76
2023-01-26T02:40:27.750Z,92.61
2023-01-26T02:41:27.737Z,92.51
2023-01-26T02:42:27.718Z,92.41
2023-01-26T02:43:27.734Z,92.45
2023-01-26T02:44:27.713Z,92.45
2023-01-26T02:45:27.706Z,92.55
2023-01-26T02:46:27.745Z,92.76
2023-01-26T02:47:27.693Z,92.86
2023-01-26T02:48:27.681Z,92.97
2023-01-26T02:49:27.654Z,93.18
2023-01-26T02:50:27.673Z,93.18
2023-01-26T02:51:27.641Z,93.29
2023-01-26T02:52:27.651Z,93.29
2023-01-26T02:53:27.623Z,93.39
2023-01-26T02:54:27.619Z,93.49
2023-01-26T02:55:27.618Z,93.39
2023-01-26T02:56:27.601Z,93.39
2023-01-26T02:57:27.588Z,93.49
2023-01-26T02:58:27.582Z,93.60
2023-01-26T02:59:27.554Z,93.70
2023-01-26T03:00:27.569Z,93.80
2023-01-26T03:01:27.556Z,93.70
2023-01-26T03:02:27.533Z,93.70
2023-01-26T03:03:27.504Z,93.80
2023-01-26T03:04:27.526Z,93.91
2023-01-26T03:05:27.500Z,94.01
2023-01-26T03:06:27.504Z,94.12
2023-01-26T03:07:27.461Z,94.16
2023-01-26T03:08:27.464Z,94.16
2023-01-26T03:09:27.452Z,94.16
2023-01-26T03:10:27.453Z,94.26
2023-01-26T03:11:27.458Z,94.32
2023-01-26T03:12:27.432Z,94.32
2023-01-26T03:13:27.429Z,94.32
2023-01-26T03:14:27.438Z,94.22
2023-01-26T03:15:27.413Z,94.12
2023-01-26T03:16:27.456Z,93.91
2023-01-26T03:17:27.355Z,93.91
2023-01-26T03:18:27.361Z,93.80
2023-01-26T03:19:27.373Z,93.49
2023-01-26T03:20:27.333Z,93.39
2023-01-26T03:21:27.353Z,93.29
2023-01-26T03:22:27.313Z,93.23
2023-01-26T03:23:27.299Z,93.33
2023-01-26T03:24:27.304Z,93.43
2023-01-26T03:25:27.273Z,93.43
2023-01-26T03:26:27.296Z,93.54
2023-01-26T03:27:27.282Z,93.64
2023-01-26T03:28:27.283Z,93.74
2023-01-26T03:29:27.267Z,93.64
2023-01-26T03:30:27.258Z,93.85
2023-01-26T03:31:27.276Z,93.95
2023-01-26T03:32:27.243Z,94.06
2023-01-26T03:33:27.218Z,93.95
2023-01-26T03:34:27.197Z,93.95
2023-01-26T03:35:27.201Z,94.06
2023-01-26T03:36:27.175Z,94.16
2023-01-26T03:37:27.203Z,94.16
2023-01-26T03:38:27.147Z,94.26
2023-01-26T03:39:27.143Z,94.37
2023-01-26T03:40:27.135Z,94.37
2023-01-26T03:41:27.110Z,94.37
2023-01-26T03:42:27.119Z,94.47
2023-01-26T03:43:27.119Z,94.47
2023-01-26T03:44:27.075Z,94.26
2023-01-26T03:45:27.070Z,94.26
2023-01-26T03:46:27.159Z,94.26
2023-01-26T03:47:27.069Z,94.16
2023-01-26T03:48:27.047Z,94.26
2023-01-26T03:49:27.042Z,94.37
2023-01-26T03:50:27.056Z,94.57
2023-01-26T03:51:27.032Z,94.68
2023-01-26T03:52:26.996Z,94.68
2023-01-26T03:53:26.995Z,94.68
2023-01-26T03:54:27.011Z,94.47
2023-01-26T03:55:26.966Z,94.37
2023-01-26T03:56:26.967Z,94.26
2023-01-26T03:57:26.956Z,94.37
2023-01-26T03:58:26.946Z,94.47
2023-01-26T03:59:26.935Z,94.47
2023-01-26T04:00:26.962Z,94.47
2023-01-26T04:01:26.907Z,94.47
2023-01-26T04:02:26.901Z,94.47
2023-01-26T04:03:26.880Z,94.47
2023-01-26T04:04:26.920Z,94.47
2023-01-26T04:05:26.845Z,94.47
2023-01-26T04:06:26.857Z,94.37
2023-01-26T04:07:26.845Z,94.47
2023-01-26T04:08:26.836Z,94.57
2023-01-26T04:09:26.831Z,94.57
2023-01-26T04:10:26.807Z,94.57
2023-01-26T04:11:26.816Z,94.47
2023-01-26T04:12:26.803Z,94.47
2023-01-26T04:13:26.758Z,94.57
2023-01-26T04:14:26.794Z,94.68
2023-01-26T04:15:26.761Z,94.78
2023-01-26T04:16:26.805Z,94.68
2023-01-26T04:17:26.756Z,94.57
2023-01-26T04:18:26.781Z,94.57
2023-01-26T04:19:26.744Z,94.68
2023-01-26T04:20:26.709Z,94.68
2023-01-26T04:21:26.762Z,94.68
2023-01-26T04:22:26.742Z,94.68
2023-01-26T04:23:26.685Z,94.68
2023-01-26T04:24:26.716Z,94.68
2023-01-26T04:25:26.647Z,94.82
2023-01-26T04:26:26.791Z,94.72
2023-01-26T04:27:26.642Z,94.93
2023-01-26T04:28:26.614Z,94.99
2023-01-26T04:29:26.610Z,94.99
2023-01-26T04:30:26.626Z,94.99
2023-01-26T04:31:26.622Z,94.99
2023-01-26T04:32:26.598Z,95.09
2023-01-26T04:33:26.575Z,95.09
2023-01-26T04:34:26.558Z,95.20
2023-01-26T04:35:26.569Z,95.09
2023-01-26T04:36:26.537Z,94.68
2023-01-26T04:37:26.526Z,94.51
2023-01-26T04:38:26.537Z,94.51
2023-01-26T04:39:26.499Z,94.51
2023-01-26T04:40:26.501Z,94.62
2023-01-26T04:41:26.486Z,94.72
2023-01-26T04:42:26.487Z,94.72
2023-01-26T04:43:26.458Z,94.82
2023-01-26T04:44:26.449Z,94.82
2023-01-26T04:45:26.470Z,94.72
2023-01-26T04:46:26.456Z,94.72
2023-01-26T04:47:29.080Z,94.72
2023-01-26T04:48:26.427Z,94.72
2023-01-26T04:49:26.410Z,94.82
2023-01-26T04:50:26.405Z,94.93
2023-01-26T04:51:26.390Z,95.03
2023-01-26T04:52:26.377Z,95.14
2023-01-26T04:53:26.352Z,95.25
2023-01-26T04:54:26.333Z,95.35
2023-01-26T04:55:26.361Z,95.35
2023-01-26T04:56:26.319Z,95.20
2023-01-26T04:57:26.326Z,95.30
2023-01-26T04:58:26.290Z,95.30
2023-01-26T04:59:26.313Z,95.09
2023-01-26T05:00:26.290Z,94.99
2023-01-26T05:01:26.300Z,95.09
2023-01-26T05:02:26.271Z,95.09
2023-01-26T05:03:26.268Z,95.09
2023-01-26T05:04:26.274Z,94.89
2023-01-26T05:05:26.223Z,94.78
2023-01-26T05:06:26.227Z,94.57
2023-01-26T05:07:26.207Z,94.51
2023-01-26T05:08:26.181Z,94.57
2023-01-26T05:09:26.192Z,94.41
2023-01-26T05:10:26.162Z,94.31
2023-01-26T05:11:26.194Z,94.20
2023-01-26T05:12:26.169Z,94.20
2023-01-26T05:13:26.151Z,94.31
2023-01-26T05:14:26.131Z,94.41
2023-01-26T05:15:26.124Z,94.41
2023-01-26T05:16:26.123Z,94.51
2023-01-26T05:17:26.127Z,94.62
2023-01-26T05:18:26.093Z,94.72
2023-01-26T05:19:26.097Z,94.82
2023-01-26T05:20:26.102Z,94.72
2023-01-26T05:21:26.094Z,94.72
2023-01-26T05:22:26.051Z,94.82
2023-01-26T05:23:26.340Z,94.82
2023-01-26T05:24:26.370Z,94.82
2023-01-26T05:25:26.034Z,94.62
2023-01-26T05:26:26.110Z,94.72
2023-01-26T05:27:26.050Z,94.72
2023-01-26T05:28:26.155Z,94.82
2023-01-26T05:29:26.141Z,94.98
2023-01-26T05:30:25.992Z,94.87
2023-01-26T05:31:26.239Z,94.87
2023-01-26T05:32:25.999Z,94.76
2023-01-26T05:33:26.063Z,94.76
2023-01-26T05:34:25.948Z,94.66
2023-01-26T05:35:25.936Z,94.56
2023-01-26T05:36:26.032Z,94.51
2023-01-26T05:37:25.908Z,94.62
2023-01-26T05:38:25.890Z,94.45
2023-01-26T05:39:25.881Z,94.41
2023-01-26T05:40:25.870Z,94.45
2023-01-26T05:41:25.862Z,94.45
2023-01-26T05:42:25.854Z,94.56
2023-01-26T05:43:25.836Z,94.56
2023-01-26T05:44:25.853Z,94.66
2023-01-26T05:45:25.807Z,94.76
2023-01-26T05:46:25.785Z,94.66
2023-01-26T05:47:25.870Z,94.66
2023-01-26T05:48:25.800Z,94.76
2023-01-26T05:49:25.789Z,94.76
2023-01-26T05:50:25.746Z,94.66
2023-01-26T05:51:25.753Z,94.66
2023-01-26T05:52:25.758Z,94.76
2023-01-26T05:53:25.747Z,94.87
2023-01-26T05:54:25.717Z,95.03
2023-01-26T05:55:25.703Z,95.14
2023-01-26T05:56:25.684Z,95.18
2023-01-26T05:57:25.717Z,95.14
2023-01-26T05:58:25.694Z,95.14
2023-01-26T05:59:25.652Z,95.25
2023-01-26T06:00:25.661Z,95.03
2023-01-26T06:01:25.732Z,94.93
2023-01-26T06:02:25.661Z,94.72
2023-01-26T06:03:25.622Z,94.51
2023-01-26T06:04:25.726Z,94.51
2023-01-26T06:05:25.627Z,94.72
2023-01-26T06:06:25.601Z,94.62
2023-01-26T06:07:25.592Z,94.31
2023-01-26T06:08:25.575Z,94.72
2023-01-26T06:09:27.516Z,94.82
2023-01-26T06:10:25.569Z,94.51
2023-01-26T06:11:25.591Z,94.31
2023-01-26T06:12:25.524Z,94.20
2023-01-26T06:13:25.512Z,93.89
2023-01-26T06:14:25.555Z,93.89
2023-01-26T06:15:25.498Z,94.10
2023-01-26T06:16:25.548Z,94.20
2023-01-26T06:17:25.505Z,94.20
2023-01-26T06:18:25.575Z,94.10
2023-01-26T06:19:25.456Z,94.41
2023-01-26T06:20:25.461Z,94.56
2023-01-26T06:21:25.433Z,94.56
2023-01-26T06:22:25.433Z,94.51
2023-01-26T06:23:25.407Z,94.24
2023-01-26T06:24:25.459Z,94.24
2023-01-26T06:25:25.390Z,94.04
2023-01-26T06:26:25.376Z,93.93
2023-01-26T06:27:25.378Z,94.04
2023-01-26T06:28:25.363Z,94.24
2023-01-26T06:29:25.353Z,94.24
2023-01-26T06:30:25.348Z,94.24
2023-01-26T06:31:25.438Z,94.35
2023-01-26T06:32:25.306Z,94.45
2023-01-26T06:33:25.313Z,94.56
2023-01-26T06:34:25.312Z,94.45
2023-01-26T06:35:25.293Z,94.66
2023-01-26T06:36:25.277Z,94.66
2023-01-26T06:37:25.267Z,94.45
2023-01-26T06:38:25.261Z,94.35
2023-01-26T06:39:25.309Z,94.35
2023-01-26T06:40:25.244Z,94.35
2023-01-26T06:41:25.260Z,94.24
2023-01-26T06:42:25.237Z,94.20
2023-01-26T06:43:25.215Z,94.20
2023-01-26T06:44:25.209Z,94.10
2023-01-26T06:45:25.186Z,93.89
2023-01-26T06:46:25.220Z,93.68
2023-01-26T06:47:25.172Z,93.89
2023-01-26T06:48:25.157Z,93.79
2023-01-26T06:49:25.150Z,93.68
2023-01-26T06:50:25.151Z,93.48
2023-01-26T06:51:25.152Z,93.05
2023-01-26T06:52:25.104Z,93.05
2023-01-26T06:53:25.128Z,93.27
2023-01-26T06:54:25.105Z,93.48
2023-01-26T06:55:25.074Z,93.37
2023-01-26T06:56:25.080Z,93.37
2023-01-26T06:57:25.093Z,93.52
2023-01-26T06:58:25.035Z,93.68
2023-01-26T06:59:25.058Z,93.89
2023-01-26T07:00:25.484Z,93.89
2023-01-26T07:01:25.056Z,93.68
2023-01-26T07:02:25.055Z,93.68
2023-01-26T07:03:25.029Z,93.79
2023-01-26T07:04:24.987Z,93.79
2023-01-26T07:05:24.968Z,93.79
2023-01-26T07:06:24.959Z,93.58
2023-01-26T07:07:24.963Z,93.48
2023-01-26T07:08:24.951Z,93.37
2023-01-26T07:09:25.076Z,93.48
2023-01-26T07:10:25.333Z,93.37
2023-01-26T07:11:24.908Z,93.27
2023-01-26T07:12:24.894Z,92.95
2023-01-26T07:13:24.897Z,93.05
2023-01-26T07:14:24.875Z,92.85
2023-01-26T07:15:24.918Z,92.95
2023-01-26T07:16:24.951Z,93.16
2023-01-26T07:17:24.882Z,93.27
2023-01-26T07:18:24.835Z,93.05
2023-01-26T07:19:24.863Z,93.16
2023-01-26T07:20:24.812Z,93.16
2023-01-26T07:21:24.824Z,93.05
2023-01-26T07:22:24.818Z,92.95
2023-01-26T07:23:24.804Z,92.74
2023-01-26T07:24:24.944Z,92.64
2023-01-26T07:25:24.786Z,92.54
2023-01-26T07:26:24.756Z,92.54
2023-01-26T07:27:24.735Z,92.85
2023-01-26T07:28:24.735Z,93.05
2023-01-26T07:29:24.728Z,93.16
2023-01-26T07:30:24.724Z,93.16
2023-01-26T07:31:24.790Z,93.27
2023-01-26T07:32:24.687Z,93.16
2023-01-26T07:33:24.690Z,93.16
2023-01-26T07:34:24.701Z,93.05
2023-01-26T07:35:24.670Z,92.74
2023-01-26T07:36:24.666Z,92.95
2023-01-26T07:37:24.647Z,93.05
2023-01-26T07:38:24.619Z,93.16
2023-01-26T07:39:24.665Z,93.05
2023-01-26T07:40:24.623Z,92.89
2023-01-26T07:41:24.605Z,93.10
2023-01-26T07:42:24.585Z,93.10
2023-01-26T07:43:24.600Z,92.99
2023-01-26T07:44:24.568Z,92.89
2023-01-26T07:45:24.590Z,93.10
2023-01-26T07:46:24.620Z,93.10
2023-01-26T07:47:24.549Z,92.89
2023-01-26T07:48:24.547Z,92.79
2023-01-26T07:49:25.518Z,92.58
2023-01-26T07:50:24.508Z,92.62
2023-01-26T07:51:24.487Z,92.72
2023-01-26T07:52:24.516Z,92.89
2023-01-26T07:53:24.474Z,93.10
2023-01-26T07:54:24.496Z,93.31
2023-01-26T07:55:24.486Z,93.20
2023-01-26T07:56:24.451Z,93.31
2023-01-26T07:57:24.431Z,93.10
2023-01-26T07:58:24.427Z,93.31
2023-01-26T07:59:24.443Z,93.41
2023-01-26T08:00:24.422Z,92.99
2023-01-26T08:01:24.435Z,92.79
2023-01-26T08:02:24.388Z,92.85
2023-01-26T08:03:24.386Z,92.74
2023-01-26T08:04:24.365Z,92.54
2023-01-26T08:05:24.387Z,92.33
2023-01-26T08:06:24.357Z,92.43
2023-01-26T08:07:24.347Z,92.22
2023-01-26T08:08:24.316Z,92.22
2023-01-26T08:09:24.327Z,92.43
2023-01-26T08:10:24.336Z,92.74
2023-01-26T08:11:24.327Z,92.85
2023-01-26T08:12:24.287Z,92.85
2023-01-26T08:13:34.655Z,92.33
2023-01-26T08:14:26.018Z,92.22
2023-01-26T08:15:24.258Z,92.43
2023-01-26T08:16:24.300Z,92.33
2023-01-26T08:17:24.238Z,92.02
2023-01-26T08:18:24.242Z,92.12
2023-01-26T08:19:24.231Z,92.22
2023-01-26T08:20:24.198Z,92.08
2023-01-26T08:21:24.255Z,91.81
2023-01-26T08:22:24.189Z,91.28
2023-01-26T08:23:24.189Z,91.28
2023-01-26T08:24:24.356Z,91.28
2023-01-26T08:25:24.158Z,91.39
2023-01-26T08:26:24.233Z,91.56
2023-01-26T08:27:24.141Z,91.71
2023-01-26T08:28:24.126Z,91.77
2023-01-26T08:29:24.127Z,91.81
2023-01-26T08:30:24.117Z,92.02
2023-01-26T08:31:24.349Z,91.60
2023-01-26T08:32:24.076Z,91.71
2023-01-26T08:33:24.068Z,91.60
2023-01-26T08:34:24.049Z,91.50
2023-01-26T08:35:24.077Z,91.50
2023-01-26T08:36:24.062Z,91.50
2023-01-26T08:37:24.026Z,91.50
2023-01-26T08:38:24.030Z,91.71
2023-01-26T08:39:24.002Z,92.02
2023-01-26T08:40:24.001Z,92.08
2023-01-26T08:41:24.000Z,92.29
2023-01-26T08:42:23.995Z,92.18
2023-01-26T08:43:23.958Z,92.08
2023-01-26T08:44:23.976Z,92.18
2023-01-26T08:45:23.954Z,91.87
2023-01-26T08:46:23.943Z,91.77
2023-01-26T08:47:23.942Z,91.56
2023-01-26T08:48:23.922Z,91.25
2023-01-26T08:49:23.898Z,90.72
2023-01-26T08:50:23.890Z,90.20
2023-01-26T08:51:23.889Z,90.41
2023-01-26T08:52:23.890Z,90.72
2023-01-26T08:53:23.881Z,91.04
2023-01-26T08:54:23.846Z,91.25
2023-01-26T08:55:23.859Z,91.35
2023-01-26T08:56:23.886Z,90.83
2023-01-26T08:57:23.814Z,90.41
2023-01-26T08:58:23.801Z,90.52
2023-01-26T08:59:23.802Z,90.93
2023-01-26T09:00:23.783Z,91.25
2023-01-26T09:01:23.856Z,91.25
2023-01-26T09:02:23.953Z,91.35
2023-01-26T09:03:23.751Z,91.25
2023-01-26T09:04:23.795Z,91.04
2023-01-26T09:05:24.702Z,91.04
2023-01-26T09:06:23.742Z,90.52
2023-01-26T09:07:23.723Z,90.52
2023-01-26T09:08:23.780Z,90.62
2023-01-26T09:09:23.712Z,90.83
2023-01-26T09:10:23.771Z,90.83
2023-01-26T09:11:23.705Z,90.52
2023-01-26T09:12:23.714Z,90.41
2023-01-26T09:13:23.645Z,90.83
2023-01-26T09:14:23.645Z,91.04
2023-01-26T09:15:23.643Z,90.41
2023-01-26T09:16:23.656Z,89.89
2023-01-26T09:17:23.620Z,89.69
2023-01-26T09:18:23.632Z,89.89
2023-01-26T09:19:23.622Z,89.79
2023-01-26T09:20:23.612Z,89.48
2023-01-26T09:21:23.583Z,89.58
2023-01-26T09:22:23.580Z,89.27
2023-01-26T09:23:23.555Z,89.69
2023-01-26T09:24:23.672Z,89.48
2023-01-26T09:25:23.592Z,89.48
2023-01-26T09:26:23.538Z,89.89
2023-01-26T09:27:23.493Z,89.79
2023-01-26T09:28:23.550Z,89.06
2023-01-26T09:29:23.493Z,89.06
2023-01-26T09:30:23.929Z,89.58
2023-01-26T09:31:23.642Z,90.00
2023-01-26T09:32:24.162Z,90.10
2023-01-26T09:33:23.507Z,89.69
2023-01-26T09:34:23.463Z,89.69
2023-01-26T09:35:23.437Z,89.37
2023-01-26T09:36:23.460Z,88.96
2023-01-26T09:37:23.403Z,88.85
2023-01-26T09:38:23.415Z,89.48
2023-01-26T09:39:23.382Z,89.41
2023-01-26T09:40:23.383Z,89.10
2023-01-26T09:41:23.353Z,89.41
2023-01-26T09:42:23.343Z,88.89
2023-01-26T09:43:23.375Z,88.68
2023-01-26T09:44:23.374Z,88.68
2023-01-26T09:45:23.318Z,88.79
2023-01-26T09:46:23.344Z,88.89
2023-01-26T09:47:23.293Z,88.68
2023-01-26T09:48:25.335Z,88.68
2023-01-26T09:49:23.312Z,88.27
2023-01-26T09:50:23.267Z,88.17
2023-01-26T09:51:23.252Z,87.81
2023-01-26T09:52:23.253Z,87.43
2023-01-26T09:53:23.253Z,87.43
2023-01-26T09:54:23.233Z,87.33
2023-01-26T09:55:23.216Z,87.43
2023-01-26T09:56:23.223Z,87.08
2023-01-26T09:57:23.184Z,87.29
2023-01-26T09:58:23.201Z,87.19
2023-01-26T09:59:23.174Z,87.29
2023-01-26T10:00:23.211Z,87.19
2023-01-26T10:01:23.232Z,86.77
2023-01-26T10:02:23.256Z,86.35
2023-01-26T10:03:23.199Z,86.67
2023-01-26T10:04:23.118Z,86.77
2023-01-26T10:05:23.165Z,87.08
2023-01-26T10:06:23.097Z,86.35
2023-01-26T10:07:23.128Z,86.57
2023-01-26T10:08:23.082Z,86.35
2023-01-26T10:09:23.092Z,86.35
2023-01-26T10:10:23.085Z,86.25
2023-01-26T10:11:23.090Z,85.94
2023-01-26T10:12:23.069Z,85.73
2023-01-26T10:13:23.027Z,85.31
2023-01-26T10:14:23.030Z,85.21
2023-01-26T10:15:23.004Z,85.31
2023-01-26T10:16:23.007Z,85.00
2023-01-26T10:17:23.014Z,84.80
2023-01-26T10:18:22.985Z,85.00
2023-01-26T10:19:22.975Z,85.00
2023-01-26T10:20:23.005Z,84.80
2023-01-26T10:21:22.955Z,83.96
2023-01-26T10:22:22.936Z,83.90
2023-01-26T10:23:22.940Z,84.83
2023-01-26T10:24:22.984Z,85.14
2023-01-26T10:25:25.275Z,85.77
2023-01-26T10:26:22.901Z,86.19
2023-01-26T10:27:22.897Z,86.29
2023-01-26T10:28:22.891Z,86.81
2023-01-26T10:29:22.856Z,86.40
2023-01-26T10:30:22.969Z,86.08
2023-01-26T10:31:23.972Z,86.50
2023-01-26T10:32:24.316Z,86.81
2023-01-26T10:33:23.798Z,86.91
2023-01-26T10:34:22.824Z,86.91
2023-01-26T10:35:23.877Z,86.50
2023-01-26T10:36:22.819Z,86.50
2023-01-26T10:37:23.805Z,86.50
2023-01-26T10:38:22.797Z,86.50
2023-01-26T10:39:23.505Z,86.60
2023-01-26T10:40:22.791Z,86.50
2023-01-26T10:41:22.899Z,86.29
2023-01-26T10:42:22.796Z,86.60
2023-01-26T10:43:23.404Z,86.50
2023-01-26T10:44:22.718Z,86.50
2023-01-26T10:45:22.741Z,86.60
2023-01-26T10:46:22.765Z,86.91
2023-01-26T10:47:22.715Z,86.81
2023-01-26T10:48:22.676Z,86.71
2023-01-26T10:49:23.167Z,87.02
2023-01-26T10:50:22.668Z,86.81
2023-01-26T10:51:22.665Z,86.81
2023-01-26T10:52:22.646Z,86.81
2023-01-26T10:53:22.670Z,86.60
2023-01-26T10:54:22.614Z,86.50
2023-01-26T10:55:23.304Z,86.29
2023-01-26T10:56:22.595Z,86.50
2023-01-26T10:57:23.277Z,86.29
2023-01-26T10:58:22.558Z,86.40
2023-01-26T10:59:22.547Z,86.08
2023-01-26T11:00:22.558Z,86.19
2023-01-26T11:01:22.656Z,86.29
2023-01-26T11:02:22.534Z,86.50
2023-01-26T11:03:22.527Z,86.60
2023-01-26T11:04:22.520Z,86.50
2023-01-26T11:05:23.162Z,86.50
2023-01-26T11:06:22.488Z,86.71
2023-01-26T11:07:23.169Z,86.81
2023-01-26T11:08:22.456Z,86.71
2023-01-26T11:09:23.148Z,86.91
2023-01-26T11:10:22.472Z,87.12
2023-01-26T11:11:22.443Z,86.60
2023-01-26T11:12:22.418Z,86.40
2023-01-26T11:13:22.448Z,86.50
2023-01-26T11:14:22.409Z,86.60
2023-01-26T11:15:22.388Z,86.50
2023-01-26T11:16:22.443Z,86.60
2023-01-26T11:17:22.391Z,86.81
2023-01-26T11:18:22.385Z,86.50
2023-01-26T11:19:22.340Z,86.19
2023-01-26T11:20:22.348Z,86.40
2023-01-26T11:21:22.329Z,86.40
2023-01-26T11:22:22.332Z,86.60
2023-01-26T11:23:22.311Z,86.71
2023-01-26T11:24:22.337Z,86.71
2023-01-26T11:25:22.268Z,86.50
2023-01-26T11:26:22.282Z,86.71
2023-01-26T11:27:22.275Z,87.02
2023-01-26T11:28:22.258Z,87.02
2023-01-26T11:29:22.251Z,86.91
2023-01-26T11:30:22.238Z,87.12
2023-01-26T11:31:22.255Z,86.71
2023-01-26T11:32:22.222Z,86.50
2023-01-26T11:33:22.198Z,86.40
2023-01-26T11:34:22.191Z,86.29
2023-01-26T11:35:22.187Z,85.77
2023-01-26T11:36:22.209Z,85.71
2023-01-26T11:37:22.172Z,85.81
2023-01-26T11:38:22.159Z,85.81
2023-01-26T11:39:22.119Z,86.22
2023-01-26T11:40:22.124Z,86.54
2023-01-26T11:41:22.129Z,86.54
2023-01-26T11:42:22.109Z,86.43
2023-01-26T11:43:22.110Z,86.54
2023-01-26T11:44:22.087Z,86.65
2023-01-26T11:45:22.098Z,86.75
2023-01-26T11:46:22.122Z,86.60
2023-01-26T11:47:22.081Z,86.40
2023-01-26T11:48:22.732Z,86.50
2023-01-26T11:49:22.075Z,86.19
2023-01-26T11:50:22.701Z,85.98
2023-01-26T11:51:22.083Z,86.29
2023-01-26T11:52:22.709Z,86.50
2023-01-26T11:53:21.999Z,86.71
2023-01-26T11:54:22.257Z,86.71
2023-01-26T11:55:22.002Z,86.60
2023-01-26T11:56:23.195Z,86.40
2023-01-26T11:57:21.959Z,86.40
2023-01-26T11:58:22.699Z,86.50
2023-01-26T11:59:21.938Z,86.50
2023-01-26T12:00:30.198Z,86.50
2023-01-26T12:01:22.930Z,86.29
2023-01-26T12:02:22.078Z,86.71
2023-01-26T12:03:22.021Z,86.91
2023-01-26T12:04:21.925Z,87.02
2023-01-26T12:05:21.912Z,86.91
2023-01-26T12:06:21.916Z,87.02
2023-01-26T12:07:21.860Z,86.91
2023-01-26T12:08:21.850Z,86.91
2023-01-26T12:09:21.840Z,86.91
2023-01-26T12:10:21.826Z,87.23
2023-01-26T12:11:21.823Z,87.33
2023-01-26T12:12:21.825Z,87.54
2023-01-26T12:13:21.778Z,87.33
2023-01-26T12:14:21.805Z,87.02
2023-01-26T12:15:21.761Z,86.71
2023-01-26T12:16:21.837Z,87.02
2023-01-26T12:17:21.743Z,87.12
2023-01-26T12:18:21.732Z,87.43
2023-01-26T12:19:21.807Z,87.75
2023-01-26T12:20:21.729Z,87.54
2023-01-26T12:21:21.692Z,87.43
2023-01-26T12:22:21.753Z,87.29
2023-01-26T12:23:21.680Z,87.19
2023-01-26T12:24:46.745Z,86.98
2023-01-26T12:25:22.693Z,86.67
2023-01-26T12:26:21.661Z,86.35
2023-01-26T12:27:21.670Z,86.46
2023-01-26T12:28:21.624Z,86.67
2023-01-26T12:29:21.659Z,86.67
2023-01-26T12:30:21.631Z,87.02
2023-01-26T12:31:21.706Z,87.33
2023-01-26T12:32:21.591Z,86.81
2023-01-26T12:33:21.563Z,86.81
2023-01-26T12:34:21.582Z,87.12
2023-01-26T12:35:21.554Z,87.12
2023-01-26T12:36:21.581Z,87.33
2023-01-26T12:37:21.521Z,87.23
2023-01-26T12:38:21.533Z,87.43
2023-01-26T12:39:21.533Z,87.48
2023-01-26T12:40:21.537Z,87.58
2023-01-26T12:41:21.523Z,87.68
2023-01-26T12:42:21.491Z,87.99
2023-01-26T12:43:21.465Z,88.20
2023-01-26T12:44:21.502Z,88.10
2023-01-26T12:45:21.433Z,87.99
2023-01-26T12:46:21.512Z,87.79
2023-01-26T12:47:21.424Z,87.79
2023-01-26T12:48:21.420Z,87.99
2023-01-26T12:49:21.449Z,87.99
2023-01-26T12:50:21.425Z,88.10
2023-01-26T12:51:21.373Z,87.89
2023-01-26T12:52:21.373Z,87.79